Time;durP1;ratioP1;P1;durP2;ratioP2;P2;SDS_P1;SDS_P2;PMS_P1;PMS_P2;Temp;Humidity;BMP_temperature;BMP_pressure;BME280_temperature;BME280_humidity;BME280_pressure;Samples;Min_cycle;Max_cycle;Signal;HPM_P1;HPM_P2
2022/10/19 00:24:42;;;;;;;20.67;14.87;;;12.00;99.90;;;;;;4916052;28;20282;-87
2022/10/19 00:39:38;;;;;;;17.43;13.63;;;11.70;99.90;;;;;;4932599;28;20239;-86
2022/10/19 01:05:18;;;;;;;23.50;15.67;;;10.70;99.90;;;;;;4776236;29;20251;-88
2022/10/19 01:25:05;;;;;;;31.20;20.05;;;10.80;99.90;;;;;;5979259;23;20193;-83
2022/10/19 01:55:17;;;;;;;31.60;19.70;;;11.20;99.90;;;;;;4696856;30;20585;-88
2022/10/19 02:21:04;;;;;;;23.93;16.67;;;11.10;99.90;;;;;;4752863;29;20482;-86
2022/10/19 02:56:21;;;;;;;24.57;16.93;;;11.10;99.90;;;;;;4805130;29;21052;-85
2022/10/19 03:26:50;;;;;;;34.10;19.97;;;10.40;99.90;;;;;;4797055;29;20514;-84
2022/10/19 03:52:08;;;;;;;30.47;18.97;;;10.50;99.90;;;;;;4807471;29;20280;-88
2022/10/19 04:47:56;;;;;;;18.77;12.27;;;10.90;99.90;;;;;;4455912;30;20216;-83
2022/10/19 05:08:06;;;;;;;19.17;10.90;;;11.10;99.90;;;;;;4568391;29;20273;-81
2022/10/19 05:38:32;;;;;;;16.47;9.20;;;11.10;99.90;;;;;;4595618;30;20348;-80
2022/10/19 06:09:01;;;;;;;12.87;8.10;;;11.20;99.90;;;;;;4601855;29;20302;-81
2022/10/19 06:39:29;;;;;;;8.73;6.23;;;11.60;99.90;;;;;;4702971;29;20244;-81
2022/10/19 08:33:24;;;;;;;5.37;4.87;;;12.60;98.50;;;;;;4642258;30;20275;-80
2022/10/19 09:07:46;;;;;;;8.67;6.20;;;12.00;99.90;;;;;;4633887;30;20271;-81
2022/10/19 10:06:12;;;;;;;4.20;3.47;;;13.10;96.50;;;;;;4567540;30;20353;-80
2022/10/19 10:35:29;;;;;;;2.53;0.90;;;10.80;99.90;;;;;;4541831;30;20426;-81
2022/10/19 12:39:23;;;;;;;0.70;0.70;;;13.20;84.30;;;;;;4679087;29;20627;-79
2022/10/19 13:09:19;;;;;;;2.20;0.80;;;12.70;79.80;;;;;;4637260;30;20201;-86
2022/10/19 13:34:43;;;;;;;1.23;0.73;;;13.10;77.70;;;;;;4722082;29;20222;-84
2022/10/19 14:05:14;;;;;;;0.70;0.60;;;11.50;86.70;;;;;;4633504;30;20247;-89
2022/10/19 14:25:18;;;;;;;2.23;0.90;;;11.60;86.60;;;;;;4655428;29;20547;-86
2022/10/19 14:50:38;;;;;;;1.50;0.97;;;10.50;90.10;;;;;;4637536;30;20228;-87
2022/10/19 15:41:46;;;;;;;1.53;0.90;;;10.10;86.50;;;;;;4625452;30;20661;-83
2022/10/19 16:42:33;;;;;;;3.73;1.70;;;9.20;86.10;;;;;;5929436;23;20429;-86
2022/10/19 16:52:45;;;;;;;3.23;1.87;;;8.80;87.70;;;;;;4860196;29;20222;-85
2022/10/19 17:23:19;;;;;;;2.50;1.87;;;8.90;88.00;;;;;;4823557;29;20220;-86
2022/10/19 17:48:48;;;;;;;4.80;1.70;;;8.70;90.10;;;;;;5728902;23;20292;-81
2022/10/19 17:58:41;;;;;;;3.37;1.83;;;8.50;90.20;;;;;;5803119;23;21900;-83
2022/10/19 18:54:24;;;;;;;4.20;2.30;;;7.80;92.40;;;;;;5871201;23;20223;-86
2022/10/19 19:09:26;;;;;;;3.70;2.10;;;7.80;92.30;;;;;;6043058;23;20179;31
2022/10/19 19:35:04;;;;;;;4.43;2.77;;;7.70;92.40;;;;;;4734009;30;20245;-85
2022/10/19 20:30:28;;;;;;;3.67;3.00;;;7.00;96.50;;;;;;4729329;29;20279;-85
2022/10/19 20:55:47;;;;;;;4.77;2.90;;;6.90;98.20;;;;;;4682716;30;20546;-85
2022/10/19 21:21:35;;;;;;;3.63;2.13;;;7.00;99.90;;;;;;4644024;30;20212;-82
2022/10/19 22:17:32;;;;;;;3.37;2.40;;;6.30;99.90;;;;;;4703023;29;20255;-84
2022/10/19 22:47:25;;;;;;;5.97;2.47;;;6.10;99.90;;;;;;4552869;30;20893;-82
2022/10/19 23:12:49;;;;;;;3.97;2.60;;;5.90;99.90;;;;;;4604188;30;20226;-82
2022/10/19 23:33:25;;;;;;;4.00;3.00;;;6.10;99.90;;;;;;4579090;30;20243;-84
2022/10/19 23:48:30;;;;;;;4.03;1.83;;;5.80;99.90;;;;;;5956318;23;20561;-84
